createdAt,value
2023-04-11T00:00:17.812Z,5.3
2023-04-11T00:06:10.737Z,5.3
2023-04-11T00:12:02.977Z,5.3
2023-04-11T00:17:55.188Z,5.3
2023-04-11T00:23:47.301Z,5.2
2023-04-11T00:29:39.308Z,5
2023-04-11T00:35:30.493Z,5
2023-04-11T00:41:22.255Z,5
2023-04-11T00:47:13.789Z,5.3
2023-04-11T00:53:05.828Z,5.4
2023-04-11T00:58:56.520Z,5.3
2023-04-11T01:04:51.517Z,5.4
2023-04-11T01:10:43.251Z,5.6
2023-04-11T01:16:35.287Z,5.6
2023-04-11T01:22:12.741Z,5.6
2023-04-11T01:27:48.011Z,5.5
2023-04-11T01:33:40.270Z,5.5
2023-04-11T01:39:16.586Z,5.4
2023-04-11T01:44:53.153Z,5.3
2023-04-11T01:50:44.557Z,5.3
2023-04-11T01:56:36.010Z,5.2
2023-04-11T02:02:12.123Z,5.1
2023-04-11T02:08:05.226Z,5.1
2023-04-11T02:13:57.363Z,4.9
2023-04-11T02:19:49.326Z,4.9
2023-04-11T02:25:41.452Z,4.9
2023-04-11T02:31:33.532Z,5.1
2023-04-11T02:37:24.736Z,5.1
2023-04-11T02:43:15.555Z,5.1
2023-04-11T02:49:20.223Z,5.1
2023-04-11T02:55:11.349Z,5.1
2023-04-11T03:01:02.700Z,5.3
2023-04-11T03:06:40.660Z,5.2
2023-04-11T03:12:32.422Z,5.2
2023-04-11T03:18:24.301Z,5.3
2023-04-11T03:24:15.918Z,5.2
2023-04-11T03:30:07.518Z,5.1
2023-04-11T03:35:59.480Z,5.2
2023-04-11T03:41:35.742Z,5.1
2023-04-11T03:47:27.793Z,5.1
2023-04-11T03:53:22.138Z,5.1
2023-04-11T03:59:16.930Z,5.1
2023-04-11T04:04:55.640Z,5.1
2023-04-11T04:10:48.012Z,5.1
2023-04-11T04:16:39.723Z,5.1
2023-04-11T04:22:31.537Z,5.1
2023-04-11T04:28:23.573Z,5
2023-04-11T04:34:20.349Z,5
2023-04-11T04:40:12.139Z,5.1
2023-04-11T04:46:03.964Z,5.1
2023-04-11T04:51:41.459Z,5.1
2023-04-11T04:57:18.159Z,5.2
2023-04-11T05:03:10.558Z,5.3
2023-04-11T05:09:04.531Z,5.4
2023-04-11T05:14:58.390Z,5.4
2023-04-11T05:20:50.460Z,5.6
2023-04-11T05:26:42.434Z,5.8
2023-04-11T05:32:33.795Z,5.9
2023-04-11T05:38:25.427Z,6
2023-04-11T05:44:17.136Z,6.1
2023-04-11T05:50:08.285Z,6.4
2023-04-11T05:56:00.306Z,6.6
2023-04-11T06:01:59.253Z,6.8
2023-04-11T06:07:37.336Z,7
2023-04-11T06:13:31.182Z,7.2
2023-04-11T06:19:26.057Z,7.6
2023-04-11T06:25:16.626Z,7.8
2023-04-11T06:31:08.363Z,7.8
2023-04-11T06:37:00.736Z,8.6
2023-04-11T06:42:53.061Z,8.8
2023-04-11T06:48:29.618Z,8.5
2023-04-11T06:54:06.216Z,8.8
2023-04-11T06:59:58.326Z,8.7
2023-04-11T07:05:55.511Z,8.4
2023-04-11T07:11:47.721Z,8.3
2023-04-11T07:17:40.241Z,8.9
2023-04-11T07:23:31.719Z,9
2023-04-11T07:29:27.183Z,9.1
2023-04-11T07:35:19.085Z,9.3
2023-04-11T07:40:55.115Z,9.5
2023-04-11T07:46:46.949Z,9.4
2023-04-11T07:52:38.507Z,10.1
2023-04-11T07:58:29.333Z,10.2
2023-04-11T08:04:25.285Z,10.3
2023-04-11T08:10:17.154Z,10.3
2023-04-11T08:16:11.022Z,10.2
2023-04-11T08:22:14.168Z,10.1
2023-04-11T08:28:07.717Z,10.3
2023-04-11T08:33:47.064Z,10.1
2023-04-11T08:39:42.612Z,10.5
2023-04-11T08:45:34.211Z,10.6
2023-04-11T08:51:25.700Z,11.4
2023-04-11T08:57:17.537Z,11.4
2023-04-11T09:03:11.554Z,11.5
2023-04-11T09:09:02.705Z,11.4
2023-04-11T09:14:55.618Z,11.3
2023-04-11T09:20:55.034Z,11.6
2023-04-11T09:26:49.719Z,11
2023-04-11T09:32:41.939Z,11.3
2023-04-11T09:38:33.527Z,11.5
2023-04-11T09:44:27.471Z,12
2023-04-11T09:50:47.726Z,12.1
2023-04-11T09:56:56.358Z,12.6
2023-04-11T10:02:49.128Z,12.8
2023-04-11T10:08:42.319Z,13.2
2023-04-11T10:14:33.809Z,12.7
2023-04-11T10:20:30.070Z,14
2023-04-11T10:26:07.049Z,13.4
2023-04-11T10:31:58.486Z,13.6
2023-04-11T10:37:35.047Z,12.7
2023-04-11T10:43:12.017Z,12.8
2023-04-11T10:49:04.107Z,12.5
2023-04-11T10:54:55.831Z,13.7
2023-04-11T11:00:49.136Z,13.3
2023-04-11T11:07:19.486Z,12.6
2023-04-11T11:12:57.444Z,12.7
2023-04-11T11:18:50.033Z,13.3
2023-04-11T11:24:35.352Z,13.7
2023-04-11T11:30:27.057Z,14
2023-04-11T11:36:23.194Z,14.4
2023-04-11T11:42:14.724Z,15.2
2023-04-11T11:47:53.225Z,14.3
2023-04-11T11:53:30.161Z,13.9
2023-04-11T11:59:08.592Z,13.4
2023-04-11T12:05:02.891Z,13.4
2023-04-11T12:10:55.681Z,13.7
2023-04-11T12:16:18.299Z,14
2023-04-11T12:22:10.723Z,13.4
2023-04-11T12:28:09.272Z,13.4
2023-04-11T12:34:03.157Z,13.3
2023-04-11T12:39:58.043Z,15.6
2023-04-11T12:46:35.907Z,15.4
2023-04-11T12:51:57.356Z,16.5
2023-04-11T12:57:48.895Z,15.6
2023-04-11T13:03:50.329Z,15.4
2023-04-11T13:09:43.293Z,14.6
2023-04-11T13:15:50.413Z,14
2023-04-11T13:21:42.953Z,14
2023-04-11T13:27:35.394Z,13.6
2023-04-11T13:33:28.262Z,13.4
2023-04-11T13:39:22.081Z,13.6
2023-04-11T13:45:13.652Z,13.6
2023-04-11T13:50:50.440Z,13.6
2023-04-11T13:56:42.604Z,13.5
2023-04-11T14:02:49.771Z,13
2023-04-11T14:08:44.019Z,13.2
2023-04-11T14:14:35.809Z,13.6
2023-04-11T14:20:39.355Z,13.3
2023-04-11T14:26:32.691Z,13.3
2023-04-11T14:32:25.943Z,13.3
2023-04-11T14:38:17.872Z,13.2
2023-04-11T14:44:09.626Z,13
2023-04-11T14:50:04.389Z,12.8
2023-04-11T14:55:56.001Z,12.6
2023-04-11T15:01:47.727Z,12.6
2023-04-11T15:07:42.162Z,12.5
2023-04-11T15:13:33.921Z,12.4
2023-04-11T15:19:28.329Z,12.4
2023-04-11T15:25:20.124Z,12.4
2023-04-11T15:31:12.138Z,12.3
2023-04-11T15:37:07.029Z,12.3
2023-04-11T15:42:43.311Z,12.4
2023-04-11T15:48:35.765Z,13
2023-04-11T15:54:28.157Z,12.4
2023-04-11T16:00:20.206Z,13.1
2023-04-11T16:06:02.748Z,12.3
2023-04-11T16:11:54.609Z,11.9
2023-04-11T16:17:31.487Z,11.6
2023-04-11T16:23:23.720Z,11.3
2023-04-11T16:29:15.985Z,11.2
2023-04-11T16:35:10.523Z,11.1
2023-04-11T16:41:04.743Z,10.9
2023-04-11T16:46:12.340Z,10.9
2023-04-11T16:51:34.054Z,10.8
2023-04-11T16:57:25.745Z,10.6
2023-04-11T17:03:19.242Z,10.6
2023-04-11T17:09:12.163Z,10.5
2023-04-11T17:14:33.392Z,10.4
2023-04-11T17:20:09.999Z,10.3
2023-04-11T17:26:00.970Z,10.1
2023-04-11T17:31:54.223Z,10.1
2023-04-11T17:37:46.193Z,9.9
2023-04-11T17:43:48.385Z,10
2023-04-11T17:49:33.234Z,10.1
2023-04-11T17:55:21.409Z,10.2
2023-04-11T18:01:28.574Z,10.3
2023-04-11T18:07:24.725Z,10.3
2023-04-11T18:13:03.714Z,10.2
2023-04-11T18:18:40.760Z,10.1
2023-04-11T18:24:01.543Z,9.9
2023-04-11T18:29:37.977Z,9.9
2023-04-11T18:35:45.066Z,10
2023-04-11T18:41:40.964Z,10
2023-04-11T18:47:27.438Z,9.9
2023-04-11T18:53:13.456Z,9.9
2023-04-11T18:59:11.901Z,9.9
2023-04-11T19:05:04.339Z,9.8
2023-04-11T19:10:42.858Z,9.6
2023-04-11T19:16:20.839Z,9.6
2023-04-11T19:21:59.666Z,9.4
2023-04-11T19:27:37.535Z,9.3
2023-04-11T19:33:15.686Z,9.1
2023-04-11T19:38:53.335Z,8.9
2023-04-11T19:44:15.898Z,8.9
2023-04-11T19:49:54.255Z,8.9
2023-04-11T19:55:33.768Z,8.8
2023-04-11T20:01:12.028Z,8.8
2023-04-11T20:06:38.456Z,8.7
2023-04-11T20:12:17.177Z,8.7
2023-04-11T20:17:54.836Z,8.6
2023-04-11T20:23:16.081Z,8.5
2023-04-11T20:28:53.007Z,8.6
2023-04-11T20:34:30.401Z,8.6
2023-04-11T20:40:09.530Z,8.6
2023-04-11T20:45:46.093Z,8.6
2023-04-11T20:51:23.691Z,8.6
2023-04-11T20:56:59.741Z,8.4
2023-04-11T21:02:36.641Z,8.3
2023-04-11T21:08:29.751Z,8.3
2023-04-11T21:14:20.978Z,8.3
2023-04-11T21:20:12.179Z,8.3
2023-04-11T21:26:03.635Z,8.1
2023-04-11T21:31:40.612Z,8.1
2023-04-11T21:37:32.586Z,8
2023-04-11T21:43:24.420Z,8.2
2023-04-11T21:49:16.772Z,8.4
2023-04-11T21:55:09.155Z,8.4
2023-04-11T22:01:13.189Z,8.3
2023-04-11T22:07:19.038Z,8.2
2023-04-11T22:13:21.109Z,8.2
2023-04-11T22:19:13.844Z,8.2
2023-04-11T22:25:05.509Z,8.1
2023-04-11T22:30:57.137Z,8.1
2023-04-11T22:36:34.519Z,8.2
2023-04-11T22:42:25.638Z,8.3
2023-04-11T22:48:17.776Z,8.3
2023-04-11T22:54:09.879Z,8.3
2023-04-11T23:00:00.249Z,8.3
2023-04-11T23:05:52.350Z,8.3
2023-04-11T23:11:29.256Z,8.3
2023-04-11T23:17:21.232Z,8.3
2023-04-11T23:22:56.807Z,8.1
2023-04-11T23:28:48.520Z,8.1
2023-04-11T23:34:40.099Z,8
2023-04-11T23:40:16.131Z,8.1
2023-04-11T23:45:22.098Z,8.1
2023-04-11T23:50:42.578Z,7.9
2023-04-11T23:56:03.086Z,8
